sensor_id;sensor_type;location;lat;lon;timestamp;P1;durP1;ratioP1;P2;durP2;ratioP2
37383;SDS011;23258;49.718;11.082;2024-01-30T00:02:30;4.93;;;3.90;;
37383;SDS011;23258;49.718;11.082;2024-01-30T00:05:00;3.83;;;3.53;;
37383;SDS011;23258;49.718;11.082;2024-01-30T00:07:30;6.47;;;4.40;;
37383;SDS011;23258;49.718;11.082;2024-01-30T00:10:00;4.93;;;3.97;;
37383;SDS011;23258;49.718;11.082;2024-01-30T00:12:30;8.17;;;4.63;;
37383;SDS011;23258;49.718;11.082;2024-01-30T00:15:02;5.47;;;4.13;;
37383;SDS011;23258;49.718;11.082;2024-01-30T00:17:36;7.37;;;5.53;;
37383;SDS011;23258;49.718;11.082;2024-01-30T00:20:06;7.80;;;6.13;;
37383;SDS011;23258;49.718;11.082;2024-01-30T00:22:36;8.80;;;5.97;;
37383;SDS011;23258;49.718;11.082;2024-01-30T00:25:06;6.50;;;4.97;;
37383;SDS011;23258;49.718;11.082;2024-01-30T00:27:36;6.60;;;5.93;;
37383;SDS011;23258;49.718;11.082;2024-01-30T00:30:09;11.10;;;5.40;;
37383;SDS011;23258;49.718;11.082;2024-01-30T00:32:39;6.43;;;5.10;;
37383;SDS011;23258;49.718;11.082;2024-01-30T00:35:09;5.53;;;4.87;;
37383;SDS011;23258;49.718;11.082;2024-01-30T00:37:39;5.70;;;4.40;;
37383;SDS011;23258;49.718;11.082;2024-01-30T00:40:09;4.80;;;3.97;;
37383;SDS011;23258;49.718;11.082;2024-01-30T00:42:42;5.33;;;3.73;;
37383;SDS011;23258;49.718;11.082;2024-01-30T00:45:15;4.13;;;3.73;;
37383;SDS011;23258;49.718;11.082;2024-01-30T00:47:45;8.00;;;3.67;;
37383;SDS011;23258;49.718;11.082;2024-01-30T00:50:15;4.07;;;3.47;;
37383;SDS011;23258;49.718;11.082;2024-01-30T00:52:45;3.93;;;3.53;;
37383;SDS011;23258;49.718;11.082;2024-01-30T00:55:14;3.40;;;3.13;;
37383;SDS011;23258;49.718;11.082;2024-01-30T00:57:44;6.80;;;3.97;;
37383;SDS011;23258;49.718;11.082;2024-01-30T01:00:17;5.33;;;3.77;;
37383;SDS011;23258;49.718;11.082;2024-01-30T01:02:47;4.50;;;3.60;;
37383;SDS011;23258;49.718;11.082;2024-01-30T01:05:17;4.80;;;3.93;;
37383;SDS011;23258;49.718;11.082;2024-01-30T01:07:47;5.23;;;3.93;;
37383;SDS011;23258;49.718;11.082;2024-01-30T01:10:16;4.70;;;3.80;;
37383;SDS011;23258;49.718;11.082;2024-01-30T01:12:47;4.63;;;3.53;;
37383;SDS011;23258;49.718;11.082;2024-01-30T01:15:20;3.90;;;3.17;;
37383;SDS011;23258;49.718;11.082;2024-01-30T01:17:53;3.57;;;3.27;;
37383;SDS011;23258;49.718;11.082;2024-01-30T01:20:23;4.40;;;3.53;;
37383;SDS011;23258;49.718;11.082;2024-01-30T01:22:52;3.83;;;3.43;;
37383;SDS011;23258;49.718;11.082;2024-01-30T01:25:22;3.63;;;3.33;;
37383;SDS011;23258;49.718;11.082;2024-01-30T01:27:51;4.17;;;3.70;;
37383;SDS011;23258;49.718;11.082;2024-01-30T01:30:24;4.73;;;3.77;;
37383;SDS011;23258;49.718;11.082;2024-01-30T01:32:55;5.23;;;3.40;;
37383;SDS011;23258;49.718;11.082;2024-01-30T01:35:28;7.03;;;3.83;;
37383;SDS011;23258;49.718;11.082;2024-01-30T01:37:57;4.37;;;3.97;;
37383;SDS011;23258;49.718;11.082;2024-01-30T01:40:27;3.63;;;3.33;;
37383;SDS011;23258;49.718;11.082;2024-01-30T01:42:57;4.60;;;4.07;;
37383;SDS011;23258;49.718;11.082;2024-01-30T01:45:30;4.73;;;4.27;;
37383;SDS011;23258;49.718;11.082;2024-01-30T01:47:59;4.87;;;4.23;;
37383;SDS011;23258;49.718;11.082;2024-01-30T01:50:29;4.63;;;3.80;;
37383;SDS011;23258;49.718;11.082;2024-01-30T01:52:59;4.97;;;4.40;;
37383;SDS011;23258;49.718;11.082;2024-01-30T01:55:29;5.60;;;4.60;;
37383;SDS011;23258;49.718;11.082;2024-01-30T01:57:59;5.53;;;4.20;;
37383;SDS011;23258;49.718;11.082;2024-01-30T02:00:32;4.33;;;3.93;;
37383;SDS011;23258;49.718;11.082;2024-01-30T02:03:02;4.40;;;4.00;;
37383;SDS011;23258;49.718;11.082;2024-01-30T02:05:31;4.70;;;3.93;;
37383;SDS011;23258;49.718;11.082;2024-01-30T02:08:01;4.60;;;4.20;;
37383;SDS011;23258;49.718;11.082;2024-01-30T02:10:31;5.33;;;4.60;;
37383;SDS011;23258;49.718;11.082;2024-01-30T02:13:01;5.70;;;4.00;;
37383;SDS011;23258;49.718;11.082;2024-01-30T02:15:34;4.87;;;3.67;;
37383;SDS011;23258;49.718;11.082;2024-01-30T02:18:04;4.50;;;4.10;;
37383;SDS011;23258;49.718;11.082;2024-01-30T02:20:34;4.53;;;3.60;;
37383;SDS011;23258;49.718;11.082;2024-01-30T02:23:08;5.80;;;4.07;;
37383;SDS011;23258;49.718;11.082;2024-01-30T02:25:39;4.43;;;4.03;;
37383;SDS011;23258;49.718;11.082;2024-01-30T02:28:11;6.23;;;4.00;;
37383;SDS011;23258;49.718;11.082;2024-01-30T02:30:42;5.40;;;3.80;;
37383;SDS011;23258;49.718;11.082;2024-01-30T02:33:12;4.23;;;3.93;;
37383;SDS011;23258;49.718;11.082;2024-01-30T02:35:42;4.70;;;4.30;;
37383;SDS011;23258;49.718;11.082;2024-01-30T02:38:14;4.10;;;3.80;;
37383;SDS011;23258;49.718;11.082;2024-01-30T02:40:44;4.30;;;3.67;;
37383;SDS011;23258;49.718;11.082;2024-01-30T02:43:14;5.60;;;3.93;;
37383;SDS011;23258;49.718;11.082;2024-01-30T02:45:44;5.23;;;4.20;;
37383;SDS011;23258;49.718;11.082;2024-01-30T02:48:14;4.53;;;3.60;;
37383;SDS011;23258;49.718;11.082;2024-01-30T02:50:43;4.13;;;3.73;;
37383;SDS011;23258;49.718;11.082;2024-01-30T02:53:16;4.70;;;4.10;;
37383;SDS011;23258;49.718;11.082;2024-01-30T02:55:45;3.93;;;3.50;;
37383;SDS011;23258;49.718;11.082;2024-01-30T02:58:15;3.47;;;3.17;;
37383;SDS011;23258;49.718;11.082;2024-01-30T03:00:45;3.40;;;3.10;;
37383;SDS011;23258;49.718;11.082;2024-01-30T03:03:14;5.77;;;3.80;;
37383;SDS011;23258;49.718;11.082;2024-01-30T03:05:44;4.67;;;3.20;;
37383;SDS011;23258;49.718;11.082;2024-01-30T03:08:16;3.93;;;3.63;;
37383;SDS011;23258;49.718;11.082;2024-01-30T03:10:46;5.63;;;3.73;;
37383;SDS011;23258;49.718;11.082;2024-01-30T03:13:16;3.67;;;3.40;;
37383;SDS011;23258;49.718;11.082;2024-01-30T03:15:46;5.37;;;4.17;;
37383;SDS011;23258;49.718;11.082;2024-01-30T03:18:15;4.33;;;3.73;;
37383;SDS011;23258;49.718;11.082;2024-01-30T03:20:45;5.40;;;4.07;;
37383;SDS011;23258;49.718;11.082;2024-01-30T03:23:17;6.13;;;4.20;;
37383;SDS011;23258;49.718;11.082;2024-01-30T03:25:47;3.90;;;3.43;;
37383;SDS011;23258;49.718;11.082;2024-01-30T03:28:17;5.20;;;3.87;;
37383;SDS011;23258;49.718;11.082;2024-01-30T03:30:47;4.93;;;4.00;;
37383;SDS011;23258;49.718;11.082;2024-01-30T03:33:16;4.67;;;4.10;;
37383;SDS011;23258;49.718;11.082;2024-01-30T03:35:46;4.13;;;3.73;;
37383;SDS011;23258;49.718;11.082;2024-01-30T03:38:18;4.00;;;3.70;;
37383;SDS011;23258;49.718;11.082;2024-01-30T03:40:48;4.70;;;3.87;;
37383;SDS011;23258;49.718;11.082;2024-01-30T03:43:18;4.50;;;3.90;;
37383;SDS011;23258;49.718;11.082;2024-01-30T03:45:47;4.43;;;4.03;;
37383;SDS011;23258;49.718;11.082;2024-01-30T03:48:17;3.83;;;3.53;;
37383;SDS011;23258;49.718;11.082;2024-01-30T03:50:47;4.37;;;3.97;;
37383;SDS011;23258;49.718;11.082;2024-01-30T03:53:19;4.83;;;4.33;;
37383;SDS011;23258;49.718;11.082;2024-01-30T03:55:49;4.27;;;3.87;;
37383;SDS011;23258;49.718;11.082;2024-01-30T03:58:18;4.97;;;3.80;;
37383;SDS011;23258;49.718;11.082;2024-01-30T04:00:48;4.77;;;4.27;;
37383;SDS011;23258;49.718;11.082;2024-01-30T04:03:18;4.53;;;4.13;;
37383;SDS011;23258;49.718;11.082;2024-01-30T04:05:48;4.57;;;3.73;;
37383;SDS011;23258;49.718;11.082;2024-01-30T04:08:20;4.87;;;4.13;;
37383;SDS011;23258;49.718;11.082;2024-01-30T04:10:50;4.47;;;4.07;;
37383;SDS011;23258;49.718;11.082;2024-01-30T04:13:19;4.57;;;3.83;;
37383;SDS011;23258;49.718;11.082;2024-01-30T04:15:49;5.07;;;3.60;;
37383;SDS011;23258;49.718;11.082;2024-01-30T04:18:21;3.63;;;3.33;;
37383;SDS011;23258;49.718;11.082;2024-01-30T04:20:50;6.17;;;4.07;;
37383;SDS011;23258;49.718;11.082;2024-01-30T04:23:23;4.40;;;3.90;;
37383;SDS011;23258;49.718;11.082;2024-01-30T04:25:53;3.90;;;3.60;;
37383;SDS011;23258;49.718;11.082;2024-01-30T04:28:22;3.70;;;2.93;;
37383;SDS011;23258;49.718;11.082;2024-01-30T04:30:52;3.07;;;2.87;;
37383;SDS011;23258;49.718;11.082;2024-01-30T04:33:21;4.07;;;3.30;;
37383;SDS011;23258;49.718;11.082;2024-01-30T04:35:51;2.90;;;2.70;;
37383;SDS011;23258;49.718;11.082;2024-01-30T04:38:23;4.23;;;3.37;;
37383;SDS011;23258;49.718;11.082;2024-01-30T04:40:53;4.70;;;4.20;;
37383;SDS011;23258;49.718;11.082;2024-01-30T04:43:23;4.17;;;3.80;;
37383;SDS011;23258;49.718;11.082;2024-01-30T04:45:53;4.43;;;4.03;;
37383;SDS011;23258;49.718;11.082;2024-01-30T04:48:22;8.13;;;4.97;;
37383;SDS011;23258;49.718;11.082;2024-01-30T04:50:52;5.13;;;4.63;;
37383;SDS011;23258;49.718;11.082;2024-01-30T04:53:25;4.20;;;3.80;;
37383;SDS011;23258;49.718;11.082;2024-01-30T04:55:55;5.30;;;4.27;;
37383;SDS011;23258;49.718;11.082;2024-01-30T04:58:24;4.77;;;3.83;;
37383;SDS011;23258;49.718;11.082;2024-01-30T05:00:54;3.83;;;3.53;;
37383;SDS011;23258;49.718;11.082;2024-01-30T05:03:24;3.77;;;3.47;;
37383;SDS011;23258;49.718;11.082;2024-01-30T05:05:57;4.60;;;3.67;;
37383;SDS011;23258;49.718;11.082;2024-01-30T05:08:29;8.57;;;3.90;;
37383;SDS011;23258;49.718;11.082;2024-01-30T05:10:59;4.47;;;4.07;;
37383;SDS011;23258;49.718;11.082;2024-01-30T05:13:30;3.97;;;3.60;;
37383;SDS011;23258;49.718;11.082;2024-01-30T05:16:01;3.83;;;3.47;;
37383;SDS011;23258;49.718;11.082;2024-01-30T05:18:31;4.13;;;3.60;;
37383;SDS011;23258;49.718;11.082;2024-01-30T05:21:01;5.57;;;4.80;;
37383;SDS011;23258;49.718;11.082;2024-01-30T05:23:34;6.93;;;5.67;;
37383;SDS011;23258;49.718;11.082;2024-01-30T05:26:03;6.37;;;4.97;;
37383;SDS011;23258;49.718;11.082;2024-01-30T05:28:33;4.83;;;4.37;;
37383;SDS011;23258;49.718;11.082;2024-01-30T05:31:03;6.10;;;4.70;;
37383;SDS011;23258;49.718;11.082;2024-01-30T05:33:33;8.70;;;4.53;;
37383;SDS011;23258;49.718;11.082;2024-01-30T05:36:02;7.13;;;4.10;;
37383;SDS011;23258;49.718;11.082;2024-01-30T05:38:35;5.00;;;4.03;;
37383;SDS011;23258;49.718;11.082;2024-01-30T05:41:04;3.80;;;3.37;;
37383;SDS011;23258;49.718;11.082;2024-01-30T05:43:34;5.47;;;4.43;;
37383;SDS011;23258;49.718;11.082;2024-01-30T05:46:04;5.83;;;4.23;;
37383;SDS011;23258;49.718;11.082;2024-01-30T05:48:34;3.93;;;3.63;;
37383;SDS011;23258;49.718;11.082;2024-01-30T05:51:04;4.97;;;4.33;;
37383;SDS011;23258;49.718;11.082;2024-01-30T05:53:37;10.63;;;8.20;;
37383;SDS011;23258;49.718;11.082;2024-01-30T05:56:06;5.97;;;5.47;;
37383;SDS011;23258;49.718;11.082;2024-01-30T05:58:36;8.60;;;7.20;;
37383;SDS011;23258;49.718;11.082;2024-01-30T06:01:06;12.80;;;11.53;;
37383;SDS011;23258;49.718;11.082;2024-01-30T06:03:36;14.67;;;12.10;;
37383;SDS011;23258;49.718;11.082;2024-01-30T06:06:06;12.30;;;11.00;;
37383;SDS011;23258;49.718;11.082;2024-01-30T06:08:38;10.57;;;9.53;;
37383;SDS011;23258;49.718;11.082;2024-01-30T06:11:09;12.33;;;10.77;;
37383;SDS011;23258;49.718;11.082;2024-01-30T06:13:39;10.40;;;8.60;;
37383;SDS011;23258;49.718;11.082;2024-01-30T06:16:09;11.13;;;9.00;;
37383;SDS011;23258;49.718;11.082;2024-01-30T06:18:39;10.40;;;9.13;;
37383;SDS011;23258;49.718;11.082;2024-01-30T06:21:09;8.73;;;7.83;;
37383;SDS011;23258;49.718;11.082;2024-01-30T06:23:41;8.87;;;6.13;;
37383;SDS011;23258;49.718;11.082;2024-01-30T06:26:11;6.10;;;5.50;;
37383;SDS011;23258;49.718;11.082;2024-01-30T06:28:41;6.03;;;5.30;;
37383;SDS011;23258;49.718;11.082;2024-01-30T06:31:11;6.97;;;5.00;;
37383;SDS011;23258;49.718;11.082;2024-01-30T06:33:40;6.67;;;6.07;;
37383;SDS011;23258;49.718;11.082;2024-01-30T06:36:11;9.33;;;7.00;;
37383;SDS011;23258;49.718;11.082;2024-01-30T06:38:44;7.07;;;6.20;;
37383;SDS011;23258;49.718;11.082;2024-01-30T06:41:13;7.70;;;6.87;;
37383;SDS011;23258;49.718;11.082;2024-01-30T06:43:43;10.00;;;6.43;;
37383;SDS011;23258;49.718;11.082;2024-01-30T06:46:13;18.80;;;10.97;;
37383;SDS011;23258;49.718;11.082;2024-01-30T06:48:43;13.00;;;9.87;;
37383;SDS011;23258;49.718;11.082;2024-01-30T06:51:13;12.60;;;9.87;;
37383;SDS011;23258;49.718;11.082;2024-01-30T06:53:46;14.37;;;10.10;;
37383;SDS011;23258;49.718;11.082;2024-01-30T06:56:16;9.53;;;7.57;;
37383;SDS011;23258;49.718;11.082;2024-01-30T06:58:47;6.97;;;6.27;;
37383;SDS011;23258;49.718;11.082;2024-01-30T07:01:17;9.67;;;6.60;;
37383;SDS011;23258;49.718;11.082;2024-01-30T07:03:47;9.70;;;7.27;;
37383;SDS011;23258;49.718;11.082;2024-01-30T07:06:17;9.00;;;7.40;;
37383;SDS011;23258;49.718;11.082;2024-01-30T07:08:50;7.70;;;6.77;;
37383;SDS011;23258;49.718;11.082;2024-01-30T07:11:20;17.33;;;14.07;;
37383;SDS011;23258;49.718;11.082;2024-01-30T07:13:51;15.57;;;11.43;;
37383;SDS011;23258;49.718;11.082;2024-01-30T07:16:23;10.53;;;9.40;;
37383;SDS011;23258;49.718;11.082;2024-01-30T07:18:53;12.43;;;8.57;;
37383;SDS011;23258;49.718;11.082;2024-01-30T07:21:24;10.03;;;8.63;;
37383;SDS011;23258;49.718;11.082;2024-01-30T07:23:58;9.50;;;8.10;;
37383;SDS011;23258;49.718;11.082;2024-01-30T07:26:27;9.40;;;6.87;;
37383;SDS011;23258;49.718;11.082;2024-01-30T07:28:57;7.30;;;6.33;;
37383;SDS011;23258;49.718;11.082;2024-01-30T07:31:27;9.07;;;7.43;;
37383;SDS011;23258;49.718;11.082;2024-01-30T07:33:59;8.43;;;6.40;;
37383;SDS011;23258;49.718;11.082;2024-01-30T07:36:29;7.03;;;6.33;;
37383;SDS011;23258;49.718;11.082;2024-01-30T07:39:02;8.07;;;6.60;;
37383;SDS011;23258;49.718;11.082;2024-01-30T07:41:32;7.13;;;6.37;;
37383;SDS011;23258;49.718;11.082;2024-01-30T07:44:02;7.23;;;6.23;;
37383;SDS011;23258;49.718;11.082;2024-01-30T07:46:31;6.13;;;5.53;;
37383;SDS011;23258;49.718;11.082;2024-01-30T07:49:01;9.30;;;6.17;;
37383;SDS011;23258;49.718;11.082;2024-01-30T07:51:31;7.33;;;6.63;;
37383;SDS011;23258;49.718;11.082;2024-01-30T07:54:03;8.00;;;5.97;;
37383;SDS011;23258;49.718;11.082;2024-01-30T07:56:33;7.77;;;6.73;;
37383;SDS011;23258;49.718;11.082;2024-01-30T07:59:03;6.20;;;5.70;;
37383;SDS011;23258;49.718;11.082;2024-01-30T08:01:33;10.67;;;6.63;;
37383;SDS011;23258;49.718;11.082;2024-01-30T08:04:03;8.17;;;6.27;;
37383;SDS011;23258;49.718;11.082;2024-01-30T08:06:32;6.73;;;5.27;;
37383;SDS011;23258;49.718;11.082;2024-01-30T08:09:05;6.23;;;5.63;;
37383;SDS011;23258;49.718;11.082;2024-01-30T08:11:35;9.83;;;6.27;;
37383;SDS011;23258;49.718;11.082;2024-01-30T08:14:05;6.13;;;5.60;;
37383;SDS011;23258;49.718;11.082;2024-01-30T08:16:34;9.57;;;5.70;;
37383;SDS011;23258;49.718;11.082;2024-01-30T08:19:04;5.97;;;5.47;;
37383;SDS011;23258;49.718;11.082;2024-01-30T08:21:34;6.30;;;5.57;;
37383;SDS011;23258;49.718;11.082;2024-01-30T08:24:08;5.83;;;5.30;;
37383;SDS011;23258;49.718;11.082;2024-01-30T08:26:38;9.60;;;6.60;;
37383;SDS011;23258;49.718;11.082;2024-01-30T08:29:07;6.60;;;5.50;;
37383;SDS011;23258;49.718;11.082;2024-01-30T08:31:37;8.38;;;6.90;;
37383;SDS011;23258;49.718;11.082;2024-01-30T08:34:07;6.50;;;5.88;;
37383;SDS011;23258;49.718;11.082;2024-01-30T08:36:37;6.77;;;5.70;;
37383;SDS011;23258;49.718;11.082;2024-01-30T08:39:09;6.47;;;5.30;;
37383;SDS011;23258;49.718;11.082;2024-01-30T08:41:39;8.18;;;5.82;;
37383;SDS011;23258;49.718;11.082;2024-01-30T08:44:09;7.00;;;6.00;;
37383;SDS011;23258;49.718;11.082;2024-01-30T08:46:39;6.25;;;5.68;;
37383;SDS011;23258;49.718;11.082;2024-01-30T08:49:09;7.90;;;6.07;;
37383;SDS011;23258;49.718;11.082;2024-01-30T08:51:40;10.27;;;5.78;;
37383;SDS011;23258;49.718;11.082;2024-01-30T08:54:12;10.07;;;5.65;;
37383;SDS011;23258;49.718;11.082;2024-01-30T08:56:42;8.18;;;5.55;;
37383;SDS011;23258;49.718;11.082;2024-01-30T08:59:12;7.28;;;5.95;;
37383;SDS011;23258;49.718;11.082;2024-01-30T09:01:41;6.40;;;5.75;;
37383;SDS011;23258;49.718;11.082;2024-01-30T09:04:28;6.57;;;5.95;;
37383;SDS011;23258;49.718;11.082;2024-01-30T09:06:58;5.75;;;5.15;;
37383;SDS011;23258;49.718;11.082;2024-01-30T09:09:31;7.07;;;5.63;;
37383;SDS011;23258;49.718;11.082;2024-01-30T09:12:00;7.63;;;6.00;;
37383;SDS011;23258;49.718;11.082;2024-01-30T09:14:33;7.38;;;5.70;;
37383;SDS011;23258;49.718;11.082;2024-01-30T09:17:03;7.93;;;5.55;;
37383;SDS011;23258;49.718;11.082;2024-01-30T09:19:33;8.27;;;5.85;;
37383;SDS011;23258;49.718;11.082;2024-01-30T09:22:03;7.15;;;6.10;;
37383;SDS011;23258;49.718;11.082;2024-01-30T09:24:36;10.02;;;6.88;;
37383;SDS011;23258;49.718;11.082;2024-01-30T09:27:06;7.50;;;6.85;;
37383;SDS011;23258;49.718;11.082;2024-01-30T09:29:35;11.85;;;8.48;;
37383;SDS011;23258;49.718;11.082;2024-01-30T09:32:06;13.48;;;8.02;;
37383;SDS011;23258;49.718;11.082;2024-01-30T09:34:36;8.23;;;6.68;;
37383;SDS011;23258;49.718;11.082;2024-01-30T09:37:07;8.10;;;6.25;;
37383;SDS011;23258;49.718;11.082;2024-01-30T09:39:39;7.30;;;6.35;;
37383;SDS011;23258;49.718;11.082;2024-01-30T09:42:10;6.93;;;6.25;;
37383;SDS011;23258;49.718;11.082;2024-01-30T09:44:41;7.95;;;6.25;;
37383;SDS011;23258;49.718;11.082;2024-01-30T09:47:12;8.73;;;6.47;;
37383;SDS011;23258;49.718;11.082;2024-01-30T09:49:42;10.52;;;6.32;;
37383;SDS011;23258;49.718;11.082;2024-01-30T09:52:13;8.13;;;6.50;;
37383;SDS011;23258;49.718;11.082;2024-01-30T09:54:45;7.70;;;6.90;;
37383;SDS011;23258;49.718;11.082;2024-01-30T09:57:15;9.30;;;6.60;;
37383;SDS011;23258;49.718;11.082;2024-01-30T09:59:45;7.20;;;6.05;;
37383;SDS011;23258;49.718;11.082;2024-01-30T10:02:14;9.80;;;6.88;;
37383;SDS011;23258;49.718;11.082;2024-01-30T10:04:44;6.95;;;6.22;;
37383;SDS011;23258;49.718;11.082;2024-01-30T10:07:14;10.02;;;6.68;;
37383;SDS011;23258;49.718;11.082;2024-01-30T10:09:47;8.65;;;6.55;;
37383;SDS011;23258;49.718;11.082;2024-01-30T10:12:17;7.35;;;6.55;;
37383;SDS011;23258;49.718;11.082;2024-01-30T10:14:46;10.82;;;6.45;;
37383;SDS011;23258;49.718;11.082;2024-01-30T10:17:16;7.38;;;5.85;;
37383;SDS011;23258;49.718;11.082;2024-01-30T10:19:59;8.07;;;7.13;;
37383;SDS011;23258;49.718;11.082;2024-01-30T10:22:29;8.27;;;6.82;;
37383;SDS011;23258;49.718;11.082;2024-01-30T10:25:02;8.23;;;7.20;;
37383;SDS011;23258;49.718;11.082;2024-01-30T10:27:32;7.40;;;6.65;;
37383;SDS011;23258;49.718;11.082;2024-01-30T10:30:02;8.30;;;7.15;;
37383;SDS011;23258;49.718;11.082;2024-01-30T10:32:33;7.25;;;6.55;;
37383;SDS011;23258;49.718;11.082;2024-01-30T10:35:03;6.50;;;5.90;;
37383;SDS011;23258;49.718;11.082;2024-01-30T10:37:33;7.18;;;6.47;;
37383;SDS011;23258;49.718;11.082;2024-01-30T10:40:06;7.20;;;6.47;;
37383;SDS011;23258;49.718;11.082;2024-01-30T10:42:37;10.88;;;6.65;;
37383;SDS011;23258;49.718;11.082;2024-01-30T10:45:10;10.18;;;6.97;;
37383;SDS011;23258;49.718;11.082;2024-01-30T10:47:42;8.48;;;7.55;;
37383;SDS011;23258;49.718;11.082;2024-01-30T10:50:13;11.70;;;9.30;;
37383;SDS011;23258;49.718;11.082;2024-01-30T10:52:43;8.90;;;7.28;;
37383;SDS011;23258;49.718;11.082;2024-01-30T10:55:15;8.75;;;7.75;;
37383;SDS011;23258;49.718;11.082;2024-01-30T10:57:45;11.60;;;7.65;;
37383;SDS011;23258;49.718;11.082;2024-01-30T11:00:16;16.63;;;8.43;;
37383;SDS011;23258;49.718;11.082;2024-01-30T11:02:50;10.20;;;7.57;;
37383;SDS011;23258;49.718;11.082;2024-01-30T11:05:23;12.85;;;7.75;;
37383;SDS011;23258;49.718;11.082;2024-01-30T11:07:59;11.93;;;7.05;;
37383;SDS011;23258;49.718;11.082;2024-01-30T11:10:31;10.30;;;7.88;;
37383;SDS011;23258;49.718;11.082;2024-01-30T11:13:09;10.55;;;7.75;;
37383;SDS011;23258;49.718;11.082;2024-01-30T11:15:39;10.05;;;7.53;;
37383;SDS011;23258;49.718;11.082;2024-01-30T11:18:09;7.47;;;6.70;;
37383;SDS011;23258;49.718;11.082;2024-01-30T11:20:39;8.90;;;6.47;;
37383;SDS011;23258;49.718;11.082;2024-01-30T11:23:16;6.60;;;5.93;;
37383;SDS011;23258;49.718;11.082;2024-01-30T11:25:48;9.00;;;7.55;;
37383;SDS011;23258;49.718;11.082;2024-01-30T11:28:18;7.18;;;6.47;;
37383;SDS011;23258;49.718;11.082;2024-01-30T11:30:50;13.73;;;7.88;;
37383;SDS011;23258;49.718;11.082;2024-01-30T11:33:29;8.60;;;6.85;;
37383;SDS011;23258;49.718;11.082;2024-01-30T11:36:00;7.18;;;6.03;;
37383;SDS011;23258;49.718;11.082;2024-01-30T11:38:34;7.95;;;7.15;;
37383;SDS011;23258;49.718;11.082;2024-01-30T11:41:06;8.50;;;7.35;;
37383;SDS011;23258;49.718;11.082;2024-01-30T11:43:36;8.38;;;6.95;;
37383;SDS011;23258;49.718;11.082;2024-01-30T11:46:06;8.52;;;7.68;;
37383;SDS011;23258;49.718;11.082;2024-01-30T11:48:37;7.82;;;7.10;;
37383;SDS011;23258;49.718;11.082;2024-01-30T11:51:06;11.27;;;7.80;;
37383;SDS011;23258;49.718;11.082;2024-01-30T11:53:36;8.82;;;6.88;;
37383;SDS011;23258;49.718;11.082;2024-01-30T11:56:09;8.10;;;7.30;;
37383;SDS011;23258;49.718;11.082;2024-01-30T11:58:42;9.65;;;7.28;;
37383;SDS011;23258;49.718;11.082;2024-01-30T12:01:11;9.48;;;7.07;;
37383;SDS011;23258;49.718;11.082;2024-01-30T12:03:41;12.10;;;8.80;;
37383;SDS011;23258;49.718;11.082;2024-01-30T12:06:11;10.13;;;8.38;;
37383;SDS011;23258;49.718;11.082;2024-01-30T12:08:41;10.80;;;9.70;;
37383;SDS011;23258;49.718;11.082;2024-01-30T12:11:13;8.00;;;7.20;;
37383;SDS011;23258;49.718;11.082;2024-01-30T12:13:43;10.82;;;8.68;;
37383;SDS011;23258;49.718;11.082;2024-01-30T12:16:13;10.02;;;7.75;;
37383;SDS011;23258;49.718;11.082;2024-01-30T12:18:43;9.77;;;7.65;;
37383;SDS011;23258;49.718;11.082;2024-01-30T12:21:15;9.07;;;7.85;;
37383;SDS011;23258;49.718;11.082;2024-01-30T12:23:45;9.23;;;8.27;;
37383;SDS011;23258;49.718;11.082;2024-01-30T12:26:18;10.00;;;7.75;;
37383;SDS011;23258;49.718;11.082;2024-01-30T12:28:48;9.50;;;8.07;;
37383;SDS011;23258;49.718;11.082;2024-01-30T12:31:18;11.10;;;8.20;;
37383;SDS011;23258;49.718;11.082;2024-01-30T12:33:49;12.30;;;7.85;;
37383;SDS011;23258;49.718;11.082;2024-01-30T12:36:19;12.27;;;8.35;;
37383;SDS011;23258;49.718;11.082;2024-01-30T12:38:49;12.15;;;8.23;;
37383;SDS011;23258;49.718;11.082;2024-01-30T12:41:22;12.43;;;7.53;;
37383;SDS011;23258;49.718;11.082;2024-01-30T12:43:54;8.95;;;7.97;;
37383;SDS011;23258;49.718;11.082;2024-01-30T12:46:27;9.38;;;7.55;;
37383;SDS011;23258;49.718;11.082;2024-01-30T12:48:57;9.70;;;7.80;;
37383;SDS011;23258;49.718;11.082;2024-01-30T12:51:27;12.82;;;8.82;;
37383;SDS011;23258;49.718;11.082;2024-01-30T12:53:56;9.77;;;7.93;;
37383;SDS011;23258;49.718;11.082;2024-01-30T12:56:29;9.82;;;7.82;;
37383;SDS011;23258;49.718;11.082;2024-01-30T12:58:58;9.70;;;8.02;;
37383;SDS011;23258;49.718;11.082;2024-01-30T13:01:28;12.70;;;8.43;;
37383;SDS011;23258;49.718;11.082;2024-01-30T13:03:58;10.45;;;7.97;;
37383;SDS011;23258;49.718;11.082;2024-01-30T13:06:28;10.98;;;8.10;;
37383;SDS011;23258;49.718;11.082;2024-01-30T13:08:57;8.20;;;7.03;;
37383;SDS011;23258;49.718;11.082;2024-01-30T13:11:30;7.97;;;6.57;;
37383;SDS011;23258;49.718;11.082;2024-01-30T13:13:59;9.48;;;6.97;;
37383;SDS011;23258;49.718;11.082;2024-01-30T13:16:30;8.25;;;7.30;;
37383;SDS011;23258;49.718;11.082;2024-01-30T13:19:00;9.63;;;7.53;;
37383;SDS011;23258;49.718;11.082;2024-01-30T13:21:30;12.50;;;7.63;;
37383;SDS011;23258;49.718;11.082;2024-01-30T13:24:00;7.97;;;7.18;;
37383;SDS011;23258;49.718;11.082;2024-01-30T13:26:32;7.88;;;7.03;;
37383;SDS011;23258;49.718;11.082;2024-01-30T13:29:02;8.15;;;7.35;;
37383;SDS011;23258;49.718;11.082;2024-01-30T13:31:32;11.13;;;7.00;;
37383;SDS011;23258;49.718;11.082;2024-01-30T13:34:02;7.78;;;5.97;;
37383;SDS011;23258;49.718;11.082;2024-01-30T13:36:34;7.60;;;6.90;;
37383;SDS011;23258;49.718;11.082;2024-01-30T13:39:04;9.52;;;6.32;;
37383;SDS011;23258;49.718;11.082;2024-01-30T13:41:41;8.38;;;7.28;;
37383;SDS011;23258;49.718;11.082;2024-01-30T13:44:10;9.07;;;7.20;;
37383;SDS011;23258;49.718;11.082;2024-01-30T13:46:40;8.93;;;6.68;;
37383;SDS011;23258;49.718;11.082;2024-01-30T13:49:10;7.38;;;6.68;;
37383;SDS011;23258;49.718;11.082;2024-01-30T13:51:40;9.73;;;6.93;;
37383;SDS011;23258;49.718;11.082;2024-01-30T13:54:09;10.10;;;7.07;;
37383;SDS011;23258;49.718;11.082;2024-01-30T13:56:42;8.63;;;7.13;;
37383;SDS011;23258;49.718;11.082;2024-01-30T13:59:11;7.63;;;6.78;;
37383;SDS011;23258;49.718;11.082;2024-01-30T14:01:41;8.05;;;6.70;;
37383;SDS011;23258;49.718;11.082;2024-01-30T14:04:11;12.48;;;6.82;;
37383;SDS011;23258;49.718;11.082;2024-01-30T14:06:41;7.75;;;6.82;;
37383;SDS011;23258;49.718;11.082;2024-01-30T14:09:22;8.05;;;7.03;;
37383;SDS011;23258;49.718;11.082;2024-01-30T14:11:55;8.38;;;7.38;;
37383;SDS011;23258;49.718;11.082;2024-01-30T14:14:25;11.63;;;7.80;;
37383;SDS011;23258;49.718;11.082;2024-01-30T14:16:55;12.15;;;7.78;;
37383;SDS011;23258;49.718;11.082;2024-01-30T14:19:25;9.60;;;6.97;;
37383;SDS011;23258;49.718;11.082;2024-01-30T14:21:57;10.68;;;7.30;;
37383;SDS011;23258;49.718;11.082;2024-01-30T14:24:27;10.55;;;8.07;;
37383;SDS011;23258;49.718;11.082;2024-01-30T14:26:59;8.70;;;7.22;;
37383;SDS011;23258;49.718;11.082;2024-01-30T14:29:29;8.38;;;7.57;;
37383;SDS011;23258;49.718;11.082;2024-01-30T14:31:59;10.95;;;8.52;;
37383;SDS011;23258;49.718;11.082;2024-01-30T14:34:28;9.77;;;8.70;;
37383;SDS011;23258;49.718;11.082;2024-01-30T14:36:58;10.43;;;8.57;;
37383;SDS011;23258;49.718;11.082;2024-01-30T14:39:28;9.23;;;7.80;;
37383;SDS011;23258;49.718;11.082;2024-01-30T14:42:01;10.38;;;7.93;;
37383;SDS011;23258;49.718;11.082;2024-01-30T14:44:30;10.75;;;7.40;;
37383;SDS011;23258;49.718;11.082;2024-01-30T14:47:00;12.90;;;7.65;;
37383;SDS011;23258;49.718;11.082;2024-01-30T14:49:30;8.10;;;6.80;;
37383;SDS011;23258;49.718;11.082;2024-01-30T14:52:00;10.23;;;6.90;;